Time;durP1;ratioP1;P1;durP2;ratioP2;P2;SDS_P1;SDS_P2;PMS_P1;PMS_P2;Temp;Humidity;BMP_temperature;BMP_pressure;BME280_temperature;BME280_humidity;BME280_pressure;Samples;Min_cycle;Max_cycle;Signal;HPM_P1;HPM_P2
2020/12/09 00:00:08;;;;;;;88.47;45.55;;;;;;;1.10;97.67;100317.63;4958579;28;20050;-50
2020/12/09 00:02:34;;;;;;;91.40;45.00;;;;;;;1.10;96.85;100306.69;4955308;28;20106;-50
2020/12/09 00:05:10;;;;;;;90.55;44.20;;;;;;;1.01;97.70;100314.59;4954922;28;20570;-54
2020/12/09 00:07:36;;;;;;;86.80;43.60;;;;;;;1.23;96.84;100309.13;4955040;28;20106;-51
2020/12/09 00:10:05;;;;;;;91.60;45.03;;;;;;;1.04;97.49;100309.75;4955214;28;20059;-48
2020/12/09 00:12:31;;;;;;;84.35;43.92;;;;;;;1.03;97.63;100315.56;4946829;28;20059;-48
2020/12/09 00:14:59;;;;;;;87.32;45.58;;;;;;;0.98;98.02;100295.13;4946955;28;20564;-49
2020/12/09 00:17:28;;;;;;;88.55;44.50;;;;;;;0.94;97.75;100310.88;4946843;28;20055;-49
2020/12/09 00:19:55;;;;;;;93.45;44.95;;;;;;;1.28;97.53;100307.72;4946937;28;20110;-49
2020/12/09 00:22:23;;;;;;;88.57;44.15;;;;;;;1.15;96.96;100317.91;4946928;28;20504;-50
2020/12/09 00:24:53;;;;;;;90.00;44.05;;;;;;;1.16;97.62;100309.59;4946949;28;20081;-49
2020/12/09 00:27:20;;;;;;;84.72;44.08;;;;;;;1.28;95.73;100312.78;4946987;28;20059;-50
2020/12/09 00:29:46;;;;;;;86.20;43.03;;;;;;;1.12;97.03;100316.09;4947390;28;20054;-50
2020/12/09 00:32:13;;;;;;;89.13;43.05;;;;;;;1.06;96.98;100302.25;4946934;28;20117;-50
2020/12/09 00:34:39;;;;;;;85.10;44.90;;;;;;;1.10;97.07;100317.63;4946675;28;20134;-48
2020/12/09 00:37:06;;;;;;;82.35;43.03;;;;;;;1.09;97.29;100315.03;4947085;28;20055;-51
2020/12/09 00:39:32;;;;;;;88.32;45.72;;;;;;;1.19;97.02;100313.13;4946756;28;20276;-50
2020/12/09 00:42:00;;;;;;;88.85;45.15;;;;;;;1.02;97.70;100301.22;4953976;28;20124;-49
2020/12/09 00:44:27;;;;;;;84.30;44.22;;;;;;;1.06;98.00;100302.25;4955415;28;20138;-54
2020/12/09 00:46:53;;;;;;;87.30;44.22;;;;;;;1.15;98.37;100297.72;4954879;28;20106;-53
2020/12/09 00:49:20;;;;;;;91.65;45.42;;;;;;;1.10;98.15;100299.13;4956288;28;20051;-54
2020/12/09 00:51:46;;;;;;;92.35;46.05;;;;;;;1.17;98.26;100298.72;4958499;28;20050;-55
2020/12/09 00:54:12;;;;;;;91.10;47.53;;;;;;;1.16;97.78;100305.41;4957073;28;20658;-54
2020/12/09 00:56:43;;;;;;;93.85;48.33;;;;;;;1.06;98.79;100303.13;4954626;28;20055;-55
2020/12/09 00:59:10;;;;;;;98.20;47.47;;;;;;;1.10;99.76;100309.22;4954960;28;20055;-53
2020/12/09 01:01:37;;;;;;;97.20;46.10;;;;;;;1.11;99.81;100306.81;4960758;28;20503;-54
2020/12/09 01:04:05;;;;;;;98.10;47.00;;;;;;;0.94;100.00;100310.88;4961571;28;20058;-55
2020/12/09 01:06:35;;;;;;;103.38;49.88;;;;;;;0.95;100.00;100312.59;4950255;28;20566;-51
2020/12/09 01:09:06;;;;;;;109.68;50.22;;;;;;;1.05;100.00;100318.16;4950145;28;20054;-52
2020/12/09 01:11:32;;;;;;;114.07;51.95;;;;;;;0.98;100.00;100319.47;4950149;28;20115;-48
2020/12/09 01:13:59;;;;;;;100.57;50.03;;;;;;;1.10;100.00;100311.72;4950053;28;20125;-47
2020/12/09 01:16:25;;;;;;;106.10;49.83;;;;;;;1.11;100.00;100316.88;4950015;28;20106;-54
2020/12/09 01:18:51;;;;;;;98.78;47.67;;;;;;;1.66;100.00;100309.84;4949942;28;20110;-52
2020/12/09 01:21:29;;;;;;;100.95;48.05;;;;;;;1.25;100.00;100307.59;4950416;28;20055;-50
2020/12/09 01:23:55;;;;;;;98.82;47.30;;;;;;;1.38;99.93;100309.97;4949775;28;20055;-48
2020/12/09 01:26:22;;;;;;;100.45;46.88;;;;;;;1.11;100.00;100306.81;4950111;28;20054;-50
2020/12/09 01:28:49;;;;;;;102.38;49.80;;;;;;;1.28;100.00;100301.03;4950620;28;20055;-48
2020/12/09 01:31:22;;;;;;;97.10;47.03;;;;;;;1.07;100.00;100304.88;4948488;28;20553;-52
2020/12/09 01:33:49;;;;;;;97.50;48.47;;;;;;;1.11;100.00;100305.91;4949286;28;20046;-51
2020/12/09 01:36:25;;;;;;;101.78;48.75;;;;;;;1.38;100.00;100309.97;4951471;28;20058;-50
2020/12/09 01:38:52;;;;;;;100.72;48.78;;;;;;;1.30;100.00;100307.84;4959968;28;20038;-54
2020/12/09 01:41:20;;;;;;;94.15;46.53;;;;;;;1.64;100.00;100300.47;4959798;28;20050;-51
2020/12/09 01:43:48;;;;;;;89.72;45.90;;;;;;;1.52;99.84;100298.13;4957655;28;20411;-52
2020/12/09 01:46:16;;;;;;;99.45;46.72;;;;;;;1.44;100.00;100300.25;4954014;28;20071;-50
2020/12/09 01:48:43;;;;;;;88.20;46.22;;;;;;;1.42;99.68;100300.94;4957830;28;20053;-52
2020/12/09 01:51:13;;;;;;;96.47;47.45;;;;;;;1.15;100.00;100297.72;4958002;28;20062;-53
2020/12/09 01:53:41;;;;;;;100.60;50.22;;;;;;;1.09;100.00;100293.22;4960289;28;20122;-55
2020/12/09 01:56:08;;;;;;;98.70;48.70;;;;;;;1.21;100.00;100296.44;4960452;28;20042;-52
2020/12/09 01:58:34;;;;;;;96.32;48.92;;;;;;;1.33;100.00;100293.72;4956887;28;20055;-52
2020/12/09 02:01:01;;;;;;;99.45;47.13;;;;;;;1.54;100.00;100301.63;4957112;28;20062;-54
2020/12/09 02:03:27;;;;;;;92.65;45.72;;;;;;;1.64;100.00;100297.94;4959956;28;20077;-51
2020/12/09 02:05:54;;;;;;;92.82;44.50;;;;;;;1.33;100.00;100292.84;4960541;28;20054;-51
2020/12/09 02:08:21;;;;;;;95.03;46.75;;;;;;;1.46;100.00;100303.72;4958073;28;20058;-47
2020/12/09 02:10:58;;;;;;;86.40;44.70;;;;;;;1.67;100.00;100293.94;4957358;28;20051;-52
2020/12/09 02:13:26;;;;;;;88.20;44.95;;;;;;;1.70;99.60;100291.56;4957866;28;20047;-50
2020/12/09 02:15:52;;;;;;;92.68;46.88;;;;;;;1.45;99.59;100299.47;4960294;28;20073;-50
2020/12/09 02:18:20;;;;;;;88.85;45.90;;;;;;;1.56;100.00;100294.13;4958853;28;20115;-51
2020/12/09 02:20:47;;;;;;;95.07;45.95;;;;;;;1.50;100.00;100284.59;4956956;28;20066;-49
2020/12/09 02:23:14;;;;;;;100.95;47.90;;;;;;;1.50;100.00;100277.00;4957869;28;20059;-53
2020/12/09 02:25:41;;;;;;;94.53;46.30;;;;;;;1.55;100.00;100287.34;4960156;28;20055;-49
2020/12/09 02:28:09;;;;;;;89.68;45.42;;;;;;;1.89;100.00;100282.47;4959388;28;20133;-51
2020/12/09 02:30:35;;;;;;;97.47;47.90;;;;;;;1.38;100.00;100274.66;4956826;28;20841;-50
2020/12/09 02:33:02;;;;;;;93.70;46.20;;;;;;;1.57;100.00;100273.16;4957142;28;20057;-52
2020/12/09 02:35:29;;;;;;;90.47;45.70;;;;;;;1.94;99.67;100273.47;4959196;28;20055;-55
2020/12/09 02:37:55;;;;;;;86.38;44.38;;;;;;;1.56;100.00;100277.34;4959721;28;20047;-54
2020/12/09 02:40:23;;;;;;;96.53;47.35;;;;;;;1.34;100.00;100284.50;4957632;28;20051;-50
2020/12/09 02:42:50;;;;;;;93.63;47.08;;;;;;;1.46;100.00;100292.75;4956751;28;20054;-52
2020/12/09 02:45:17;;;;;;;95.95;48.78;;;;;;;1.23;100.00;100289.81;4957990;28;20379;-48
2020/12/09 02:47:44;;;;;;;96.57;47.83;;;;;;;1.64;100.00;100278.63;4959663;28;20096;-49
2020/12/09 02:50:10;;;;;;;103.75;50.17;;;;;;;1.42;100.00;100290.84;4959089;28;20066;-52
2020/12/09 02:52:37;;;;;;;109.70;49.38;;;;;;;1.32;100.00;100293.66;4956444;28;20062;-55
2020/12/09 02:55:03;;;;;;;109.05;50.88;;;;;;;1.12;100.00;100298.44;4956006;28;20062;-53
2020/12/09 02:57:30;;;;;;;111.07;52.20;;;;;;;1.36;100.00;100304.00;4959027;28;20057;-51
2020/12/09 02:59:56;;;;;;;109.32;51.55;;;;;;;1.31;100.00;100291.91;4959358;28;20042;-49
2020/12/09 03:02:23;;;;;;;108.72;52.92;;;;;;;1.28;100.00;100285.91;4956674;28;20053;-50
2020/12/09 03:04:49;;;;;;;112.70;53.20;;;;;;;1.18;100.00;100288.69;4955705;28;20047;-49
2020/12/09 03:07:16;;;;;;;127.78;56.80;;;;;;;1.11;100.00;100288.25;4957254;28;20047;-50
2020/12/09 03:09:43;;;;;;;105.82;52.58;;;;;;;1.13;100.00;100282.53;4959281;28;20503;-52
2020/12/09 03:12:09;;;;;;;116.55;54.20;;;;;;;1.16;100.00;100279.31;4958679;28;20065;-55
2020/12/09 03:14:36;;;;;;;109.05;52.42;;;;;;;1.51;100.00;100273.69;4955584;28;20051;-51
2020/12/09 03:17:02;;;;;;;114.85;52.60;;;;;;;1.34;100.00;100260.19;4955787;28;20071;-48
2020/12/09 03:19:29;;;;;;;116.60;52.53;;;;;;;1.24;100.00;100260.44;4958577;28;20043;-48
2020/12/09 03:21:55;;;;;;;110.30;51.88;;;;;;;1.64;100.00;100252.53;4958342;28;20408;-48
2020/12/09 03:24:22;;;;;;;115.65;53.33;;;;;;;1.21;100.00;100253.56;4950961;28;20055;-50
2020/12/09 03:26:48;;;;;;;107.28;50.35;;;;;;;1.42;100.00;100263.97;4959388;28;20053;-50
2020/12/09 03:29:15;;;;;;;110.28;51.55;;;;;;;1.47;100.00;100260.03;4957293;28;20042;-53
2020/12/09 03:31:44;;;;;;;110.40;50.70;;;;;;;1.38;100.00;100273.81;4955318;28;20066;-50
2020/12/09 03:34:10;;;;;;;114.43;53.13;;;;;;;1.25;100.00;100280.72;4955969;28;22783;-50
2020/12/09 03:36:37;;;;;;;117.43;53.42;;;;;;;1.24;100.00;100288.16;4958683;28;20047;-48
2020/12/09 03:39:04;;;;;;;117.05;54.28;;;;;;;1.26;100.00;100294.19;4958744;28;20085;-49
2020/12/09 03:41:30;;;;;;;119.90;56.80;;;;;;;1.16;100.00;100291.94;4955742;28;20059;-50
2020/12/09 03:43:57;;;;;;;119.47;56.67;;;;;;;1.34;100.00;100298.00;4955250;28;20423;-48
2020/12/09 03:46:23;;;;;;;113.95;54.22;;;;;;;1.27;100.00;100290.88;4957816;28;20055;-48
2020/12/09 03:48:50;;;;;;;114.53;54.95;;;;;;;1.33;100.00;100285.28;4958831;28;20042;-50
2020/12/09 03:51:16;;;;;;;121.00;57.67;;;;;;;1.41;100.00;100292.50;4956617;28;20049;-52
2020/12/09 03:53:45;;;;;;;123.47;56.38;;;;;;;1.58;100.00;100298.50;4954979;28;20098;-49
2020/12/09 03:56:12;;;;;;;120.07;53.88;;;;;;;1.37;100.00;100293.13;4956017;28;20054;-53
2020/12/09 03:58:38;;;;;;;113.95;54.53;;;;;;;1.61;100.00;100293.59;4958181;28;20108;-48
2020/12/09 04:01:06;;;;;;;122.70;56.63;;;;;;;1.32;100.00;100281.91;4958723;28;20546;-49
2020/12/09 04:03:32;;;;;;;123.55;55.05;;;;;;;1.27;100.00;100283.31;4947073;28;20051;-50
2020/12/09 04:05:59;;;;;;;130.30;57.28;;;;;;;1.15;100.00;100282.59;4946720;28;20051;-49
2020/12/09 04:08:26;;;;;;;125.43;57.38;;;;;;;1.43;100.00;100287.53;4952930;28;20047;-52
2020/12/09 04:10:53;;;;;;;132.68;57.53;;;;;;;1.27;100.00;100288.34;4947213;28;20079;-52
2020/12/09 04:13:19;;;;;;;129.52;58.88;;;;;;;1.21;100.00;100298.97;4947431;28;20073;-52
2020/12/09 04:15:46;;;;;;;126.22;56.78;;;;;;;1.46;100.00;100298.66;4947130;28;20041;-53
2020/12/09 04:18:13;;;;;;;120.43;56.58;;;;;;;1.60;100.00;100294.38;4946742;28;20047;-54
2020/12/09 04:20:39;;;;;;;120.28;55.70;;;;;;;1.53;100.00;100289.81;4946623;28;20047;-51
2020/12/09 04:23:06;;;;;;;110.63;53.42;;;;;;;1.30;100.00;100290.19;4946741;28;20685;-48
2020/12/09 04:25:32;;;;;;;121.47;54.75;;;;;;;1.29;100.00;100291.81;4954812;28;20058;-47
2020/12/09 04:27:59;;;;;;;121.63;56.92;;;;;;;1.47;100.00;100290.31;4954644;28;20043;-48
2020/12/09 04:30:25;;;;;;;124.15;54.85;;;;;;;1.59;100.00;100301.88;4957386;28;20405;-48
2020/12/09 04:32:52;;;;;;;128.32;58.13;;;;;;;1.25;100.00;100287.41;4958346;28;20072;-48
2020/12/09 04:35:18;;;;;;;127.70;60.78;;;;;;;1.21;100.00;100301.50;4957691;28;20054;-48
2020/12/09 04:37:46;;;;;;;126.45;58.38;;;;;;;1.34;100.00;100302.16;4959088;28;20411;-50
2020/12/09 04:40:13;;;;;;;131.48;59.58;;;;;;;1.26;100.00;100299.22;4959890;28;20137;-52
2020/12/09 04:42:53;;;;;;;135.63;58.88;;;;;;;1.37;100.00;100302.34;4961846;28;20164;-51
2020/12/09 04:45:20;;;;;;;136.90;59.95;;;;;;;1.27;100.00;100309.38;4960269;28;20782;-50
2020/12/09 04:47:55;;;;;;;141.20;61.65;;;;;;;1.23;100.00;100319.22;4958649;28;20062;-51
2020/12/09 04:50:33;;;;;;;141.35;62.03;;;;;;;1.37;100.00;100312.44;4960681;28;20058;-53
2020/12/09 04:53:05;;;;;;;132.98;59.55;;;;;;;1.24;100.00;100309.22;4962255;28;20495;-51
2020/12/09 04:55:33;;;;;;;142.82;58.60;;;;;;;1.33;100.00;100313.03;4950549;28;20395;-51
2020/12/09 04:58:12;;;;;;;130.73;60.22;;;;;;;1.34;100.00;100317.28;4950218;28;20047;-49
2020/12/09 05:00:42;;;;;;;133.70;59.88;;;;;;;1.26;100.00;100311.84;4950537;28;20637;-50
2020/12/09 05:03:15;;;;;;;128.80;58.47;;;;;;;1.42;100.00;100314.41;4955041;28;20063;-50
2020/12/09 05:05:42;;;;;;;129.13;58.03;;;;;;;1.32;100.00;100314.69;4965444;28;20102;-49
2020/12/09 05:08:22;;;;;;;133.43;58.25;;;;;;;1.36;100.00;100323.31;4961156;28;20054;-48
2020/12/09 05:10:51;;;;;;;136.45;61.13;;;;;;;1.32;100.00;100317.22;4959165;28;20046;-52
2020/12/09 05:13:26;;;;;;;126.80;59.75;;;;;;;1.45;100.00;100323.81;4959432;28;20046;-52
2020/12/09 05:15:56;;;;;;;132.00;60.78;;;;;;;1.35;100.00;100314.88;4961587;28;20039;-52
2020/12/09 05:18:40;;;;;;;133.48;61.50;;;;;;;1.32;100.00;100323.91;4959312;28;20056;-50
2020/12/09 05:21:21;;;;;;;135.38;61.10;;;;;;;1.26;100.00;100324.44;4958251;28;20043;-50
2020/12/09 05:23:50;;;;;;;143.95;61.65;;;;;;;1.31;100.00;100325.56;4961136;28;20058;-48
2020/12/09 05:26:23;;;;;;;132.82;59.67;;;;;;;1.33;100.00;100318.06;4960243;28;20046;-54
2020/12/09 05:29:11;;;;;;;131.27;60.60;;;;;;;1.33;100.00;100320.59;4979119;28;20049;-52
2020/12/09 05:31:58;;;;;;;134.57;61.20;;;;;;;1.37;100.00;100328.44;4977048;28;20043;-52
2020/12/09 05:34:33;;;;;;;130.88;59.08;;;;;;;1.51;100.00;100331.72;4978773;28;20621;-51
2020/12/09 05:37:01;;;;;;;125.70;58.53;;;;;;;1.27;100.00;100343.84;4980392;28;20815;-53
2020/12/09 05:39:28;;;;;;;131.73;59.15;;;;;;;1.29;100.00;100337.22;4977226;28;20276;-54
2020/12/09 05:41:55;;;;;;;126.88;59.45;;;;;;;1.52;100.00;100336.84;4979569;28;20053;-53
2020/12/09 05:44:22;;;;;;;129.98;61.13;;;;;;;1.38;100.00;100340.25;4985060;28;20042;-50
2020/12/09 05:46:57;;;;;;;122.95;57.33;;;;;;;1.40;100.00;100343.75;4972344;28;20045;-50
2020/12/09 05:49:27;;;;;;;127.90;57.08;;;;;;;1.38;100.00;100344.44;4960604;28;20070;-53
2020/12/09 05:52:10;;;;;;;125.45;57.58;;;;;;;1.51;100.00;100337.63;4960125;28;20642;-55
2020/12/09 05:54:38;;;;;;;118.53;56.17;;;;;;;1.50;100.00;100345.13;4957060;28;20055;-52
2020/12/09 05:57:07;;;;;;;121.00;56.92;;;;;;;1.28;100.00;100336.34;4957525;28;20047;-50
2020/12/09 05:59:44;;;;;;;130.98;61.97;;;;;;;1.25;100.00;100337.84;4957007;28;20053;-55
2020/12/09 06:02:13;;;;;;;135.55;59.60;;;;;;;1.29;100.00;100337.22;4958250;28;20575;-48
2020/12/09 06:04:50;;;;;;;134.93;60.88;;;;;;;1.32;100.00;100344.97;4949574;28;20053;-45
2020/12/09 06:07:18;;;;;;;123.13;59.33;;;;;;;1.28;100.00;100345.56;4951237;28;20620;-45
2020/12/09 06:10:05;;;;;;;129.98;61.05;;;;;;;1.28;100.00;100333.81;4965897;28;20523;-43
2020/12/09 06:12:56;;;;;;;132.32;60.92;;;;;;;1.21;100.00;100346.00;4967959;28;20046;-45
2020/12/09 06:15:40;;;;;;;127.63;60.65;;;;;;;1.38;100.00;100352.00;4948284;28;20155;-45
2020/12/09 06:18:15;;;;;;;128.52;60.60;;;;;;;1.40;100.00;100347.94;4948716;28;20079;-47
2020/12/09 06:20:46;;;;;;;124.25;59.08;;;;;;;1.27;100.00;100344.69;4954356;28;20407;-44
2020/12/09 06:23:15;;;;;;;131.40;62.33;;;;;;;1.25;100.00;100337.84;4950692;28;20054;-44
2020/12/09 06:25:43;;;;;;;131.60;62.70;;;;;;;1.16;100.00;100348.28;4955746;28;20079;-43
2020/12/09 06:28:15;;;;;;;132.43;61.42;;;;;;;1.15;100.00;100350.69;4959545;28;20168;-49
2020/12/09 06:30:45;;;;;;;130.77;62.53;;;;;;;1.23;100.00;100357.91;4963468;28;20054;-45
2020/12/09 06:33:37;;;;;;;132.43;63.28;;;;;;;1.16;100.00;100353.31;4962146;28;20120;-49
2020/12/09 06:36:25;;;;;;;136.63;64.75;;;;;;;1.10;100.00;100364.69;4974364;28;20658;-45
2020/12/09 06:39:13;;;;;;;130.73;61.05;;;;;;;1.15;100.00;100376.75;4981444;28;20064;-45
2020/12/09 06:42:01;;;;;;;132.02;62.30;;;;;;;1.21;100.00;100371.22;4981576;28;20704;-45
2020/12/09 06:44:30;;;;;;;131.82;62.55;;;;;;;1.21;100.00;100371.22;4964968;28;20089;-49
2020/12/09 06:47:00;;;;;;;133.98;61.88;;;;;;;1.02;100.00;100367.66;4963268;28;20126;-46
2020/12/09 06:49:30;;;;;;;130.32;61.13;;;;;;;1.14;100.00;100362.44;4970967;28;20051;-44
2020/12/09 06:52:30;;;;;;;135.85;60.70;;;;;;;1.14;100.00;100366.59;4981125;28;20474;-48
2020/12/09 06:54:57;;;;;;;134.90;61.17;;;;;;;1.05;100.00;100364.41;4980969;28;20422;-48
2020/12/09 06:57:37;;;;;;;127.38;64.25;;;;;;;1.06;100.00;100368.66;4981796;28;20058;-43
2020/12/09 07:00:19;;;;;;;128.55;58.78;;;;;;;1.42;100.00;100369.03;4982754;28;20058;-46
2020/12/09 07:02:49;;;;;;;127.05;58.47;;;;;;;1.20;100.00;100382.97;4980342;28;20410;-43
2020/12/09 07:05:25;;;;;;;127.88;59.65;;;;;;;1.14;100.00;100379.22;4981791;28;20553;-44
2020/12/09 07:08:03;;;;;;;119.82;59.08;;;;;;;1.64;100.00;100388.81;4989137;28;20046;-49
2020/12/09 07:10:32;;;;;;;113.88;55.15;;;;;;;1.56;100.00;100392.53;4984714;28;20058;-43
2020/12/09 07:13:08;;;;;;;116.15;58.50;;;;;;;1.27;100.00;100396.78;4985110;28;20042;-43
2020/12/09 07:15:37;;;;;;;116.20;57.20;;;;;;;1.14;100.00;100395.19;4968133;28;20046;-50
2020/12/09 07:18:06;;;;;;;122.20;57.05;;;;;;;1.18;100.00;100392.09;4968653;28;20055;-48
2020/12/09 07:20:34;;;;;;;121.82;59.85;;;;;;;1.18;100.00;100397.13;4975783;28;20089;-42
2020/12/09 07:23:02;;;;;;;125.05;58.25;;;;;;;1.26;100.00;100403.50;4966411;28;20431;-42
2020/12/09 07:25:29;;;;;;;111.97;57.63;;;;;;;1.16;100.00;100400.34;4983921;28;20112;-43
2020/12/09 07:27:56;;;;;;;123.35;57.22;;;;;;;1.02;100.00;100399.56;4985727;28;20050;-46
2020/12/09 07:30:23;;;;;;;133.98;63.72;;;;;;;0.89;100.00;100413.06;4968549;28;20078;-42
2020/12/09 07:32:52;;;;;;;131.75;62.08;;;;;;;0.91;100.00;100410.63;4968540;28;20055;-46
2020/12/09 07:35:19;;;;;;;135.85;61.42;;;;;;;0.94;100.00;100406.66;4953042;28;20055;-46
2020/12/09 07:37:50;;;;;;;124.85;59.53;;;;;;;0.91;100.00;100401.41;4955907;28;20124;-46
2020/12/09 07:40:30;;;;;;;129.90;58.95;;;;;;;1.00;100.00;100401.97;4971081;28;20047;-45
2020/12/09 07:43:05;;;;;;;132.55;61.80;;;;;;;1.01;100.00;100402.81;4959561;28;20070;-43
2020/12/09 07:45:38;;;;;;;122.53;58.28;;;;;;;1.12;100.00;100404.34;4989429;28;20051;-42
2020/12/09 07:48:05;;;;;;;124.75;61.17;;;;;;;1.05;100.00;100412.31;4984468;28;20050;-43
2020/12/09 07:50:33;;;;;;;121.43;56.97;;;;;;;1.20;100.00;100412.34;4973603;28;20047;-44
2020/12/09 07:53:01;;;;;;;118.63;58.78;;;;;;;0.98;100.00;100418.66;4968009;28;20070;-42
2020/12/09 07:55:28;;;;;;;121.97;58.42;;;;;;;1.07;100.00;100409.91;4966500;28;20054;-44
2020/12/09 07:58:09;;;;;;;117.15;58.17;;;;;;;1.02;100.00;100414.69;4984108;28;20142;-45
2020/12/09 08:00:37;;;;;;;124.07;57.17;;;;;;;0.86;100.00;100412.88;4994167;28;20095;-43
2020/12/09 08:03:04;;;;;;;126.13;59.35;;;;;;;0.99;100.00;100410.31;4991184;28;20053;-44
2020/12/09 08:05:38;;;;;;;131.13;61.30;;;;;;;1.00;100.00;100401.09;4991144;28;20046;-44
2020/12/09 08:08:20;;;;;;;116.20;55.40;;;;;;;0.99;100.00;100399.34;4972692;28;20626;-48
2020/12/09 08:10:48;;;;;;;128.10;61.22;;;;;;;0.92;100.00;100402.28;4986596;28;20046;-45
2020/12/09 08:13:23;;;;;;;112.93;54.95;;;;;;;1.15;100.00;100408.69;4991375;28;20522;-45
2020/12/09 08:16:07;;;;;;;120.75;58.60;;;;;;;1.00;100.00;100403.63;4980357;28;20066;-42
2020/12/09 08:18:34;;;;;;;129.75;61.55;;;;;;;0.98;100.00;100406.06;4983097;28;20057;-43
2020/12/09 08:21:01;;;;;;;127.93;58.30;;;;;;;1.11;100.00;100415.22;4983314;28;20054;-43
2020/12/09 08:23:50;;;;;;;120.90;57.78;;;;;;;1.17;100.00;100404.63;4984807;28;20420;-44
2020/12/09 08:26:33;;;;;;;122.22;57.70;;;;;;;1.01;100.00;100410.38;4983858;28;20755;-45
2020/12/09 08:29:00;;;;;;;123.35;57.38;;;;;;;1.05;100.00;100409.78;4982503;28;20046;-44
2020/12/09 08:31:27;;;;;;;119.93;57.58;;;;;;;1.16;100.00;100406.28;4988344;28;20053;-46
2020/12/09 08:33:54;;;;;;;117.13;56.20;;;;;;;1.14;100.00;100409.47;4982219;28;20387;-48
2020/12/09 08:36:22;;;;;;;113.35;53.22;;;;;;;1.18;100.00;100412.25;4984859;28;20070;-48
2020/12/09 08:38:50;;;;;;;120.57;57.90;;;;;;;1.18;100.00;100422.34;4964926;28;20511;-45
2020/12/09 08:41:29;;;;;;;120.75;55.85;;;;;;;1.14;100.00;100430.50;4981314;28;20498;-44
2020/12/09 08:44:04;;;;;;;114.90;54.50;;;;;;;0.99;100.00;100429.59;4992092;28;20042;-44
2020/12/09 08:46:31;;;;;;;121.22;58.35;;;;;;;1.10;100.00;100431.09;4988353;28;20141;-46
2020/12/09 08:48:59;;;;;;;114.72;55.60;;;;;;;1.15;100.00;100438.94;4987729;28;20060;-44
2020/12/09 08:51:34;;;;;;;120.72;57.45;;;;;;;1.27;100.00;100439.66;4983146;28;20100;-44
2020/12/09 08:54:04;;;;;;;120.03;59.77;;;;;;;1.15;100.00;100446.50;4989911;28;20053;-44
2020/12/09 08:56:32;;;;;;;120.88;57.38;;;;;;;1.15;100.00;100442.31;4984890;28;20054;-48
2020/12/09 08:59:00;;;;;;;122.68;58.38;;;;;;;1.23;100.00;100453.75;4977394;28;20402;-46
2020/12/09 09:01:27;;;;;;;124.82;59.47;;;;;;;1.21;100.00;100455.31;4981909;28;20050;-47
2020/12/09 09:03:57;;;;;;;117.70;57.55;;;;;;;1.18;100.00;100460.16;4987135;28;20743;-47
2020/12/09 09:06:24;;;;;;;114.35;56.50;;;;;;;1.18;100.00;100452.59;4984477;28;20057;-43
2020/12/09 09:08:50;;;;;;;115.97;58.00;;;;;;;1.30;100.00;100454.13;4989691;28;20053;-45
2020/12/09 09:11:22;;;;;;;117.88;60.05;;;;;;;1.28;100.00;100442.28;4983144;28;20418;-46
2020/12/09 09:13:48;;;;;;;112.75;55.42;;;;;;;1.38;100.00;100445.31;4982413;28;20046;-44
2020/12/09 09:16:15;;;;;;;104.45;54.08;;;;;;;1.36;99.66;100446.91;4968202;28;20051;-44
2020/12/09 09:18:41;;;;;;;111.28;54.17;;;;;;;1.46;99.79;100446.66;4973528;28;20054;-44
2020/12/09 09:21:09;;;;;;;108.57;52.58;;;;;;;1.32;100.00;100450.91;4977029;28;20047;-43
2020/12/09 09:23:35;;;;;;;111.07;55.20;;;;;;;1.38;99.87;100461.34;4976623;28;20057;-43
2020/12/09 09:26:11;;;;;;;103.90;52.10;;;;;;;1.56;99.31;100445.53;4981221;28;20422;-44
2020/12/09 09:28:38;;;;;;;104.32;51.95;;;;;;;1.49;99.71;100447.72;4984607;28;20514;-46
2020/12/09 09:31:06;;;;;;;110.53;55.80;;;;;;;1.21;100.00;100454.44;4984899;28;20097;-44
2020/12/09 09:33:32;;;;;;;110.50;52.13;;;;;;;1.49;99.67;100451.88;4991699;28;20053;-45
2020/12/09 09:36:00;;;;;;;116.28;56.53;;;;;;;1.42;99.94;100462.38;4991772;28;20066;-43
2020/12/09 09:38:27;;;;;;;107.45;51.08;;;;;;;1.58;99.10;100459.97;4990798;28;20042;-44
2020/12/09 09:40:56;;;;;;;102.18;51.65;;;;;;;1.50;99.08;100464.56;4991754;28;20685;-44
2020/12/09 09:43:22;;;;;;;105.63;52.72;;;;;;;1.53;99.34;100466.41;4973118;28;20060;-45
2020/12/09 09:45:50;;;;;;;104.47;51.85;;;;;;;1.53;98.81;100458.84;4992954;28;20046;-44
2020/12/09 09:48:16;;;;;;;106.65;51.80;;;;;;;1.64;98.18;100460.31;4988498;28;20042;-44
2020/12/09 09:50:43;;;;;;;107.22;50.10;;;;;;;1.89;97.43;100460.06;4992454;28;20042;-44
2020/12/09 09:53:10;;;;;;;108.85;51.53;;;;;;;1.52;97.73;100460.47;4990527;28;20435;-45
2020/12/09 09:55:37;;;;;;;98.72;49.90;;;;;;;1.76;98.61;100465.22;4980708;28;20154;-47
2020/12/09 09:58:03;;;;;;;108.03;52.03;;;;;;;1.70;97.92;100455.63;4975904;28;20066;-49
2020/12/09 10:00:30;;;;;;;100.45;50.22;;;;;;;1.71;98.21;100457.38;4988254;28;20054;-44
2020/12/09 10:02:57;;;;;;;101.88;51.67;;;;;;;1.73;97.56;100463.38;4985679;28;20050;-45
2020/12/09 10:05:26;;;;;;;105.05;52.95;;;;;;;1.61;97.93;100451.69;4989135;28;20056;-47
2020/12/09 10:07:53;;;;;;;99.13;47.35;;;;;;;1.59;97.86;100456.69;4987266;28;20050;-45
2020/12/09 10:10:20;;;;;;;102.85;48.63;;;;;;;1.92;97.36;100455.19;4995194;28;20059;-43
2020/12/09 10:12:46;;;;;;;103.70;50.72;;;;;;;1.62;96.55;100449.28;4987770;28;20051;-43
2020/12/09 10:15:13;;;;;;;101.05;51.25;;;;;;;1.61;98.00;100450.03;4981269;28;20848;-45
2020/12/09 10:17:48;;;;;;;97.05;47.90;;;;;;;2.08;96.95;100451.00;4991459;28;20056;-45
2020/12/09 10:20:16;;;;;;;92.97;48.03;;;;;;;1.63;97.01;100453.53;4987798;28;20085;-45
2020/12/09 10:22:43;;;;;;;105.55;50.15;;;;;;;1.77;97.27;100440.06;4990833;28;20042;-46
2020/12/09 10:25:10;;;;;;;101.68;48.50;;;;;;;1.91;96.38;100447.53;4988359;28;20054;-45
2020/12/09 10:27:36;;;;;;;101.82;49.00;;;;;;;1.80;96.88;100441.88;4992351;28;20468;-44
2020/12/09 10:30:06;;;;;;;101.20;48.15;;;;;;;1.73;96.88;100444.84;4975471;28;20493;-45
2020/12/09 10:32:33;;;;;;;96.90;46.67;;;;;;;1.96;97.04;100438.56;4966679;28;20046;-44
2020/12/09 10:35:00;;;;;;;99.32;49.40;;;;;;;1.81;95.67;100441.09;4979272;28;20050;-44
2020/12/09 10:37:27;;;;;;;102.28;49.80;;;;;;;1.85;95.47;100449.69;4990304;28;20050;-43
2020/12/09 10:39:54;;;;;;;94.28;45.83;;;;;;;2.08;95.20;100439.25;4985648;28;20058;-46
2020/12/09 10:42:21;;;;;;;95.82;47.80;;;;;;;1.94;96.08;100437.59;4991011;28;20054;-48
2020/12/09 10:44:48;;;;;;;97.70;46.60;;;;;;;1.99;96.56;100443.81;4987115;28;20050;-45
2020/12/09 10:47:15;;;;;;;97.25;47.53;;;;;;;1.85;95.96;100443.03;4986083;28;20058;-44
2020/12/09 10:49:44;;;;;;;97.07;47.58;;;;;;;1.89;96.06;100437.34;4986212;28;20047;-44
2020/12/09 10:52:12;;;;;;;95.45;47.28;;;;;;;2.07;96.17;100445.06;4983535;28;20511;-47
2020/12/09 10:54:39;;;;;;;92.38;46.67;;;;;;;1.92;95.31;100446.75;4984810;28;20041;-45
2020/12/09 10:57:11;;;;;;;98.97;47.13;;;;;;;2.12;95.37;100455.44;4973073;28;20055;-42
2020/12/09 10:59:38;;;;;;;94.13;42.67;;;;;;;2.18;93.96;100455.78;4975831;28;20118;-46
2020/12/09 11:02:07;;;;;;;93.47;47.17;;;;;;;1.98;95.21;100454.66;4974261;28;20042;-44
2020/12/09 11:04:34;;;;;;;88.95;47.83;;;;;;;1.99;94.70;100453.91;4971233;28;20077;-43
2020/12/09 11:07:06;;;;;;;94.57;44.80;;;;;;;2.15;95.69;100441.31;4980199;28;20047;-47
2020/12/09 11:09:33;;;;;;;96.82;47.88;;;;;;;1.87;95.11;100440.56;4972166;28;20318;-46
2020/12/09 11:12:01;;;;;;;89.85;43.92;;;;;;;2.10;94.78;100452.81;4980292;28;20169;-44
2020/12/09 11:14:27;;;;;;;94.07;46.75;;;;;;;2.02;95.05;100451.53;4968462;28;20046;-46
2020/12/09 11:16:54;;;;;;;95.75;46.35;;;;;;;1.89;95.27;100449.97;4990989;28;20054;-45